createdAt,value
2018-01-20T00:01:18.952Z,8.90
2018-01-20T00:03:46.832Z,10.55
2018-01-20T00:06:14.725Z,6.70
2018-01-20T00:08:42.199Z,6.07
2018-01-20T00:11:21.647Z,7.28
2018-01-20T00:13:49.192Z,10.65
2018-01-20T00:16:17.079Z,8.13
2018-01-20T00:18:44.969Z,5.93
2018-01-20T00:21:12.468Z,9.25
2018-01-20T00:23:39.948Z,5.82
2018-01-20T00:26:13.060Z,6.50
2018-01-20T00:28:40.545Z,5.60
2018-01-20T00:31:08.132Z,5.05
2018-01-20T00:33:35.704Z,4.45
2018-01-20T00:36:03.280Z,11.55
2018-01-20T00:38:31.251Z,7.03
2018-01-20T00:40:58.829Z,5.40
2018-01-20T00:43:26.312Z,11.57
2018-01-20T00:45:54.205Z,6.50
2018-01-20T00:48:21.693Z,5.43
2018-01-20T00:50:49.192Z,6.30
2018-01-20T00:53:16.676Z,7.72
2018-01-20T00:55:44.176Z,8.88
2018-01-20T00:58:12.149Z,9.10
2018-01-20T01:00:40.035Z,5.55
2018-01-20T01:03:08.012Z,8.00
2018-01-20T01:05:35.899Z,8.75
2018-01-20T01:08:03.863Z,7.28
2018-01-20T01:10:31.340Z,4.03
2018-01-20T01:12:59.240Z,9.13
2018-01-20T01:15:27.111Z,14.45
2018-01-20T01:17:54.995Z,7.18
2018-01-20T01:20:22.881Z,7.90
2018-01-20T01:22:50.383Z,5.40
2018-01-20T01:25:17.900Z,8.18
2018-01-20T01:27:46.623Z,9.23
2018-01-20T01:30:14.484Z,10.55
2018-01-20T01:32:42.380Z,4.43
2018-01-20T01:35:09.860Z,11.88
2018-01-20T01:37:37.356Z,7.15
2018-01-20T01:40:04.836Z,4.82
2018-01-20T01:42:32.336Z,7.07
2018-01-20T01:44:59.811Z,8.10
2018-01-20T01:47:27.308Z,6.37
2018-01-20T01:49:54.789Z,11.15
2018-01-20T01:52:22.315Z,9.25
2018-01-20T01:54:49.787Z,5.95
2018-01-20T01:57:17.275Z,6.68
2018-01-20T01:59:45.151Z,4.70
2018-01-20T02:02:13.120Z,4.37
2018-01-20T02:04:40.605Z,10.40
2018-01-20T02:07:08.572Z,7.87
2018-01-20T02:09:36.047Z,4.03
2018-01-20T02:12:03.931Z,5.65
2018-01-20T02:14:31.808Z,5.37
2018-01-20T02:16:59.709Z,7.28
2018-01-20T02:19:27.188Z,8.85
2018-01-20T02:21:54.691Z,6.82
2018-01-20T02:24:22.162Z,10.75
2018-01-20T02:26:49.655Z,4.30
2018-01-20T02:29:17.544Z,6.75
2018-01-20T02:31:45.045Z,5.97
2018-01-20T02:34:12.524Z,7.75
2018-01-20T02:36:40.047Z,4.82
2018-01-20T02:39:07.544Z,5.20
2018-01-20T02:41:35.429Z,9.27
2018-01-20T02:44:02.932Z,7.15
2018-01-20T02:46:30.421Z,6.72
2018-01-20T04:10:55.019Z,8.00
2018-01-20T04:13:22.912Z,7.03
2018-01-20T04:15:50.788Z,7.30
2018-01-20T04:18:18.681Z,5.62
2018-01-20T04:20:46.156Z,6.85
2018-01-20T04:23:13.700Z,6.80
2018-01-20T04:25:41.671Z,8.65
2018-01-20T04:28:09.153Z,8.10
2018-01-20T04:30:37.044Z,5.75
2018-01-20T04:33:05.014Z,9.13
2018-01-20T04:35:32.904Z,7.85
2018-01-20T04:38:00.780Z,10.63
2018-01-20T04:40:28.667Z,6.40
2018-01-20T04:42:56.535Z,5.60
2018-01-20T04:45:24.424Z,6.25
2018-01-20T04:47:52.304Z,10.23
2018-01-20T04:50:20.192Z,6.15
2018-01-20T04:52:47.674Z,11.35
2018-01-20T04:55:15.175Z,10.57
2018-01-20T04:57:42.675Z,10.45
2018-01-20T05:00:10.177Z,10.30
2018-01-20T05:02:37.656Z,7.32
2018-01-20T05:05:05.147Z,7.15
2018-01-20T05:07:32.628Z,7.80
2018-01-20T05:10:00.125Z,6.15
2018-01-20T05:12:27.613Z,4.80
2018-01-20T05:14:55.508Z,5.97
2018-01-20T05:17:22.994Z,8.35
2018-01-20T05:19:50.501Z,9.55
2018-01-20T05:22:18.001Z,6.25
2018-01-20T05:24:45.981Z,5.75
2018-01-20T05:27:13.856Z,7.18
2018-01-20T05:29:41.749Z,8.63
2018-01-20T05:32:09.626Z,4.45
2018-01-20T05:34:37.586Z,8.52
2018-01-20T05:37:05.168Z,6.57
2018-01-20T05:39:32.740Z,6.32
2018-01-20T05:42:00.220Z,8.50
2018-01-20T05:44:28.197Z,8.80
2018-01-20T05:46:56.176Z,4.85
2018-01-20T05:49:24.073Z,8.48
2018-01-20T05:51:51.954Z,5.35
2018-01-20T05:54:19.843Z,4.78
2018-01-20T05:56:47.388Z,6.07
2018-01-20T05:59:15.372Z,8.00
2018-01-20T06:01:43.269Z,9.65
2018-01-20T06:04:10.749Z,9.52
2018-01-20T06:06:38.289Z,6.80
2018-01-20T06:09:05.859Z,10.23
2018-01-20T06:11:33.436Z,6.90
2018-01-20T06:14:01.311Z,5.22
2018-01-20T06:16:28.809Z,6.87
2018-01-20T06:18:56.351Z,5.75
2018-01-20T06:21:23.849Z,8.93
2018-01-20T06:23:51.724Z,5.25
2018-01-20T06:26:19.620Z,8.57
2018-01-20T06:28:47.104Z,4.18
2018-01-20T06:31:14.604Z,3.47
2018-01-20T06:33:42.094Z,6.07
2018-01-20T06:36:10.104Z,5.25
2018-01-20T06:38:37.655Z,5.05
2018-01-20T06:41:05.548Z,6.28
2018-01-20T06:43:33.433Z,7.15
2018-01-20T06:46:00.932Z,8.23
2018-01-20T06:48:28.403Z,4.03
2018-01-20T06:50:55.900Z,4.45
2018-01-20T06:53:23.380Z,5.25
2018-01-20T06:55:50.873Z,6.53
2018-01-20T06:58:18.752Z,5.53
2018-01-20T07:00:46.244Z,5.97
2018-01-20T07:03:13.721Z,5.05
2018-01-20T07:05:41.217Z,7.70
2018-01-20T07:08:08.728Z,4.57
2018-01-20T07:10:36.709Z,5.60
2018-01-20T07:13:04.590Z,7.87
2018-01-20T07:15:32.485Z,6.30
2018-01-20T07:18:00.361Z,4.50
2018-01-20T07:20:28.255Z,5.18
2018-01-20T07:22:55.736Z,8.82
2018-01-20T07:25:23.227Z,3.87
2018-01-20T07:27:51.048Z,6.43
2018-01-20T07:30:18.933Z,8.32
2018-01-20T07:32:46.824Z,2.70
2018-01-20T07:35:14.704Z,5.70
2018-01-20T07:37:42.664Z,3.08
2018-01-20T07:40:11.470Z,5.82
2018-01-20T07:42:39.358Z,2.75
2018-01-20T07:45:07.329Z,3.80
2018-01-20T07:47:35.304Z,5.32
2018-01-20T07:50:02.784Z,5.47
2018-01-20T07:52:30.676Z,7.57
2018-01-20T07:54:58.565Z,7.65
2018-01-20T07:57:27.957Z,3.35
2018-01-20T07:59:55.832Z,5.12
2018-01-20T08:02:23.330Z,4.05
2018-01-20T08:04:50.812Z,3.85
2018-01-20T08:07:18.316Z,3.80
2018-01-20T08:09:45.820Z,3.33
2018-01-20T08:12:13.712Z,9.48
2018-01-20T08:14:41.588Z,3.90
2018-01-20T08:17:09.480Z,4.78
2018-01-20T08:19:36.960Z,2.10
2018-01-20T08:22:04.500Z,4.25
2018-01-20T08:24:32.378Z,4.10
2018-01-20T08:27:00.279Z,3.53
2018-01-20T08:29:27.765Z,7.25
2018-01-20T08:31:55.306Z,4.53
2018-01-20T08:34:23.175Z,4.12
2018-01-20T08:36:50.667Z,3.72
2018-01-20T08:39:18.535Z,2.12
2018-01-20T08:41:46.429Z,6.15
2018-01-20T08:44:13.904Z,4.47
2018-01-20T08:46:41.475Z,5.47
2018-01-20T08:49:08.951Z,5.50
2018-01-20T08:51:36.452Z,2.85
2018-01-20T08:54:03.933Z,3.70
2018-01-20T08:56:31.459Z,7.25
2018-01-20T08:58:58.956Z,4.15
2018-01-20T09:01:26.441Z,7.20
2018-01-20T09:03:53.936Z,5.22
2018-01-20T09:06:21.429Z,8.10
2018-01-20T09:08:49.324Z,5.12
2018-01-20T09:11:16.804Z,3.78
2018-01-20T09:13:44.306Z,5.22
2018-01-20T09:16:11.784Z,9.65
2018-01-20T09:18:39.380Z,8.05
2018-01-20T09:21:07.260Z,5.97
2018-01-20T09:23:35.240Z,4.40
2018-01-20T09:26:02.724Z,5.30
2018-01-20T09:28:30.624Z,4.78
2018-01-20T09:30:58.124Z,3.15
2018-01-20T09:33:25.619Z,6.85
2018-01-20T09:35:53.096Z,4.65
2018-01-20T09:38:20.598Z,8.80
2018-01-20T09:40:48.085Z,9.43
2018-01-20T09:43:15.584Z,6.20
2018-01-20T09:45:43.059Z,4.03
2018-01-20T09:48:10.557Z,6.93
2018-01-20T09:50:38.436Z,7.15
2018-01-20T09:53:06.333Z,7.90
2018-01-20T09:55:33.815Z,5.37
2018-01-20T09:58:01.312Z,3.90
2018-01-20T10:00:28.797Z,7.55
2018-01-20T10:02:56.293Z,5.55
2018-01-20T10:05:23.773Z,5.90
2018-01-20T10:07:51.775Z,7.43
2018-01-20T10:10:19.321Z,9.35
2018-01-20T10:12:46.820Z,3.10
2018-01-20T10:15:14.351Z,7.82
2018-01-20T10:17:41.959Z,4.40
2018-01-20T10:20:09.444Z,3.95
2018-01-20T10:22:36.932Z,3.47
2018-01-20T10:25:04.452Z,7.18
2018-01-20T10:27:32.424Z,4.47
2018-01-20T10:29:59.920Z,3.60
2018-01-20T10:32:27.405Z,9.40
2018-01-20T10:34:54.904Z,6.15
2018-01-20T10:37:22.379Z,7.90
2018-01-20T10:39:49.875Z,4.40
2018-01-20T10:42:17.352Z,7.10
2018-01-20T10:44:45.248Z,4.97
2018-01-20T10:47:13.119Z,5.93
2018-01-20T10:49:41.088Z,6.15
2018-01-20T10:52:08.573Z,7.72
2018-01-20T10:54:36.459Z,5.82
2018-01-20T10:57:04.337Z,4.00
2018-01-20T10:59:32.229Z,6.20
2018-01-20T11:01:59.713Z,6.75
2018-01-20T11:04:27.267Z,5.47
2018-01-20T11:06:54.807Z,8.25
2018-01-20T11:09:22.388Z,4.70
2018-01-20T11:11:50.264Z,6.82
2018-01-20T11:14:17.760Z,6.03
2018-01-20T11:16:45.326Z,9.15
2018-01-20T11:19:12.828Z,8.18
2018-01-20T11:21:40.309Z,5.32
2018-01-20T11:24:07.817Z,4.55
2018-01-20T11:26:35.299Z,7.85
2018-01-20T11:29:03.195Z,7.32
2018-01-20T11:31:30.673Z,6.35
2018-01-20T11:33:58.169Z,6.30
2018-01-20T11:36:25.651Z,5.25
2018-01-20T11:38:53.144Z,7.65
2018-01-20T11:41:20.619Z,5.75
2018-01-20T11:43:48.533Z,6.97
2018-01-20T11:46:16.013Z,6.65
2018-01-20T11:48:43.487Z,8.27
2018-01-20T11:51:10.979Z,7.22
2018-01-20T11:53:38.455Z,10.73
2018-01-20T11:56:05.958Z,7.32
2018-01-20T11:58:33.834Z,6.22
2018-01-20T12:01:01.725Z,7.85
2018-01-20T12:03:29.608Z,6.57
2018-01-20T12:05:57.567Z,6.15
2018-01-20T12:08:25.053Z,10.63
2018-01-20T12:10:53.395Z,7.28
2018-01-20T12:13:20.912Z,9.65
2018-01-20T12:15:48.811Z,12.70
2018-01-20T12:18:16.299Z,13.70
2018-01-20T12:20:43.801Z,12.68
2018-01-20T12:23:11.280Z,6.40
2018-01-20T12:25:38.766Z,6.60
2018-01-20T12:28:06.237Z,8.77
2018-01-20T12:30:34.129Z,8.05
2018-01-20T12:33:02.005Z,6.35
2018-01-20T12:35:29.899Z,11.38
2018-01-20T12:37:57.367Z,8.60
2018-01-20T12:40:24.880Z,8.40
2018-01-20T12:42:52.356Z,9.25
2018-01-20T12:45:19.856Z,8.57
2018-01-20T12:47:47.340Z,8.23
2018-01-20T12:50:15.233Z,9.82
2018-01-20T12:52:42.707Z,11.55
2018-01-20T12:55:10.204Z,7.87
2018-01-20T12:57:37.720Z,6.62
2018-01-20T13:00:05.617Z,5.97
2018-01-20T13:02:33.163Z,8.27
2018-01-20T13:05:00.664Z,7.72
2018-01-20T13:07:28.144Z,6.87
2018-01-20T13:09:55.684Z,11.40
2018-01-20T13:12:23.208Z,10.48
2018-01-20T13:14:50.694Z,8.57
2018-01-20T13:17:18.190Z,7.62
2018-01-20T13:19:45.673Z,8.90
2018-01-20T13:22:13.564Z,9.15
2018-01-20T13:24:41.068Z,9.75
2018-01-20T13:27:08.564Z,9.98
2018-01-20T13:29:36.049Z,11.75
2018-01-20T13:32:03.545Z,7.80
2018-01-20T13:34:31.415Z,10.00
2018-01-20T13:36:59.309Z,7.85
2018-01-20T13:39:26.783Z,7.97
2018-01-20T13:41:54.280Z,8.70
2018-01-20T13:44:21.760Z,9.52
2018-01-20T13:46:49.257Z,8.45
2018-01-20T13:49:16.740Z,9.25
2018-01-20T13:51:44.235Z,8.05
2018-01-20T13:54:11.716Z,7.85
2018-01-20T13:56:39.212Z,10.75
2018-01-20T13:59:06.693Z,8.98
2018-01-20T14:01:34.193Z,10.38
2018-01-20T14:04:02.068Z,8.77
2018-01-20T14:06:30.022Z,9.45
2018-01-20T14:08:57.472Z,9.48
2018-01-20T14:11:24.973Z,7.97
2018-01-20T14:13:52.447Z,8.45
2018-01-20T14:16:19.954Z,9.85
2018-01-20T14:18:47.444Z,7.82
2018-01-20T14:21:14.935Z,9.95
2018-01-20T14:23:42.461Z,9.63
2018-01-20T14:26:09.933Z,8.80
2018-01-20T14:28:37.900Z,7.20
2018-01-20T14:31:05.399Z,8.27
2018-01-20T14:33:32.877Z,8.07
2018-01-20T14:36:00.360Z,8.25
2018-01-20T14:38:27.860Z,7.20
2018-01-20T14:40:55.345Z,7.15
2018-01-20T14:43:22.835Z,9.48
2018-01-20T14:45:50.827Z,7.20
2018-01-20T14:48:18.336Z,6.72
2018-01-20T14:50:45.831Z,7.95
2018-01-20T14:53:13.332Z,7.40
2018-01-20T14:55:41.199Z,6.22
2018-01-20T14:58:09.096Z,5.07
2018-01-20T15:00:36.648Z,5.05
2018-01-20T15:03:04.546Z,5.22
2018-01-20T15:05:32.117Z,5.97
2018-01-20T15:07:59.636Z,5.07
2018-01-20T15:10:27.121Z,4.70
2018-01-20T15:12:54.635Z,4.35
2018-01-20T15:15:22.121Z,5.15
2018-01-20T15:17:49.643Z,4.80
2018-01-20T15:20:17.220Z,7.10
2018-01-20T15:22:44.716Z,5.37
2018-01-20T15:25:12.197Z,5.53
2018-01-20T15:27:39.701Z,5.00
2018-01-20T15:30:07.181Z,5.03
2018-01-20T15:32:34.777Z,4.40
2018-01-20T15:35:02.656Z,4.50
2018-01-20T15:37:30.229Z,5.45
2018-01-20T15:39:57.708Z,5.47
2018-01-20T15:42:25.603Z,6.03
2018-01-20T15:44:53.079Z,6.60
2018-01-20T15:47:20.580Z,5.55
2018-01-20T15:49:48.061Z,5.85
2018-01-20T15:52:15.562Z,6.75
2018-01-20T15:54:43.436Z,7.03
2018-01-20T15:57:10.944Z,8.15
2018-01-20T15:59:38.428Z,8.77
2018-01-20T16:02:05.953Z,8.38
2018-01-20T16:04:33.449Z,5.65
2018-01-20T16:07:00.920Z,6.85
2018-01-20T16:09:28.445Z,7.90
2018-01-20T16:11:55.944Z,6.43
2018-01-20T16:14:23.911Z,7.03
2018-01-20T16:16:51.384Z,7.60
2018-01-20T16:19:18.971Z,8.00
2018-01-20T16:21:46.852Z,8.35
2018-01-20T16:24:14.980Z,8.05
2018-01-20T16:26:42.908Z,10.05
2018-01-20T16:29:10.888Z,18.08
2018-01-20T16:31:38.758Z,11.90
2018-01-20T16:34:06.291Z,9.40
2018-01-20T16:36:33.776Z,16.75
2018-01-20T16:39:01.312Z,14.52
2018-01-20T16:41:28.796Z,23.38
2018-01-20T16:43:56.361Z,33.35
2018-01-20T16:46:23.846Z,24.75
2018-01-20T16:48:51.410Z,13.57
2018-01-20T16:51:19.175Z,10.80
2018-01-20T16:53:46.832Z,27.48
2018-01-20T16:56:14.713Z,15.65
2018-01-20T16:58:42.652Z,13.75
2018-01-20T17:01:10.152Z,11.50
2018-01-20T17:03:37.648Z,9.65
2018-01-20T17:06:05.127Z,9.70
2018-01-20T17:08:32.681Z,10.25
2018-01-20T17:11:00.164Z,9.75
2018-01-20T17:13:27.795Z,28.45
2018-01-20T17:15:55.381Z,10.45
2018-01-20T17:18:23.452Z,8.60
2018-01-20T17:20:51.027Z,12.20
2018-01-20T17:23:18.775Z,14.32
2018-01-20T17:25:46.256Z,10.77
2018-01-20T17:28:13.902Z,14.38
2018-01-20T17:30:41.424Z,13.00
2018-01-20T17:33:09.173Z,11.60
2018-01-20T17:35:36.783Z,13.90
2018-01-20T17:38:04.664Z,10.40
2018-01-20T17:40:32.557Z,11.23
2018-01-20T17:43:00.103Z,9.88
2018-01-20T17:45:27.612Z,11.48
2018-01-20T17:47:55.297Z,13.15
2018-01-20T17:50:22.787Z,11.48
2018-01-20T17:52:50.652Z,15.10
2018-01-20T17:55:18.156Z,13.35
2018-01-20T17:57:46.063Z,16.23
2018-01-20T18:00:13.956Z,14.65
2018-01-20T18:02:41.477Z,13.23
2018-01-20T18:05:08.989Z,14.98
2018-01-20T18:07:36.956Z,15.25
2018-01-20T18:10:04.456Z,17.73
2018-01-20T18:12:31.939Z,16.67
2018-01-20T18:14:59.436Z,15.57
2018-01-20T18:17:27.188Z,14.27
2018-01-20T18:19:54.690Z,17.50
2018-01-20T18:22:22.463Z,17.15
2018-01-20T18:24:49.966Z,16.10
2018-01-20T18:27:17.939Z,20.08
2018-01-20T18:29:45.449Z,16.87
2018-01-20T18:32:12.964Z,16.85
2018-01-20T18:34:40.459Z,16.77
2018-01-20T18:37:08.033Z,15.60
2018-01-20T18:39:35.937Z,17.75
2018-01-20T18:42:03.536Z,16.00
2018-01-20T18:44:31.047Z,18.15
2018-01-20T18:46:58.792Z,16.95
2018-01-20T18:49:26.293Z,15.65
2018-01-20T18:51:53.973Z,17.33
2018-01-20T18:54:21.472Z,20.10
2018-01-20T18:56:49.109Z,98.07
2018-01-20T18:59:16.601Z,18.33
2018-01-20T19:01:44.685Z,20.92
2018-01-20T19:04:12.651Z,21.92
2018-01-20T19:06:40.224Z,17.20
2018-01-20T19:09:07.699Z,19.45
2018-01-20T19:11:35.241Z,18.37
2018-01-20T19:14:02.739Z,18.25
2018-01-20T19:16:30.450Z,16.40
2018-01-20T19:18:57.960Z,18.73
2018-01-20T19:21:25.636Z,17.55
2018-01-20T19:23:53.120Z,20.10
2018-01-20T19:26:20.626Z,22.40
2018-01-20T19:28:48.114Z,18.02
2018-01-20T19:31:15.672Z,18.25
2018-01-20T19:33:43.208Z,19.98
2018-01-20T19:36:10.721Z,20.58
2018-01-20T19:38:38.236Z,18.60
2018-01-20T19:41:05.736Z,16.65
2018-01-20T19:43:33.659Z,21.77
2018-01-20T19:46:01.172Z,21.00
2018-01-20T19:48:28.684Z,19.83
2018-01-20T19:50:56.190Z,22.60
2018-01-20T19:53:23.780Z,26.85
2018-01-20T19:55:51.376Z,20.42
2018-01-20T19:58:19.335Z,21.10
2018-01-20T20:00:46.836Z,28.15
2018-01-20T20:03:14.760Z,23.60
2018-01-20T20:05:42.305Z,21.90
2018-01-20T20:08:09.792Z,18.80
2018-01-20T20:10:37.328Z,18.87
2018-01-20T20:13:05.243Z,18.75
2018-01-20T20:15:32.743Z,19.67
2018-01-20T20:18:00.238Z,21.58
2018-01-20T20:20:27.803Z,22.13
2018-01-20T20:22:55.382Z,27.15
2018-01-20T20:25:22.872Z,20.08
2018-01-20T20:27:50.652Z,20.98
2018-01-20T20:30:18.211Z,23.50
2018-01-20T20:32:46.124Z,23.90
2018-01-20T20:35:13.608Z,29.35
2018-01-20T20:37:41.113Z,27.48
2018-01-20T20:40:08.612Z,30.00
2018-01-20T20:42:36.523Z,28.60
2018-01-20T20:45:04.013Z,23.98
2018-01-20T20:47:31.525Z,26.50
2018-01-20T20:49:59.491Z,26.05
2018-01-20T20:52:27.008Z,26.92
2018-01-20T20:54:54.500Z,24.52
2018-01-20T20:57:22.000Z,25.75
2018-01-20T20:59:49.583Z,29.92
2018-01-20T21:02:17.499Z,26.65
2018-01-20T21:04:45.041Z,26.75
2018-01-20T21:07:12.963Z,24.30
2018-01-20T21:09:40.614Z,21.77
2018-01-20T21:12:08.115Z,24.95
2018-01-20T21:14:35.600Z,26.10
2018-01-20T21:17:03.120Z,25.95
2018-01-20T21:19:31.009Z,27.52
2018-01-20T21:21:58.524Z,25.25
2018-01-20T21:24:26.008Z,23.40
2018-01-20T21:26:53.508Z,24.12
2018-01-20T21:29:21.469Z,26.15
2018-01-20T21:31:48.976Z,27.10
2018-01-20T21:34:16.470Z,26.35
2018-01-20T21:36:43.970Z,28.08
2018-01-20T21:39:11.451Z,26.98
2018-01-20T21:41:38.951Z,28.73
2018-01-20T21:44:06.439Z,27.58
2018-01-20T21:46:33.935Z,26.90
2018-01-20T21:49:01.544Z,25.95
2018-01-20T21:51:29.428Z,29.60
2018-01-20T21:53:57.324Z,33.47
2018-01-20T21:56:24.810Z,32.60
2018-01-20T21:58:52.312Z,42.97
2018-01-20T22:01:19.804Z,42.40
2018-01-20T22:03:47.389Z,39.63
2018-01-20T22:06:15.268Z,44.58
2018-01-20T22:08:43.173Z,42.55
2018-01-20T22:11:10.655Z,43.97
2018-01-20T22:13:38.160Z,41.92
2018-01-20T22:16:05.656Z,44.10
2018-01-20T22:18:33.151Z,45.38
2018-01-20T22:21:00.701Z,50.78
2018-01-20T22:23:28.601Z,53.60
2018-01-20T22:25:56.093Z,50.15
2018-01-20T22:28:23.596Z,48.20
2018-01-20T22:30:51.075Z,47.92
2018-01-20T22:33:18.581Z,49.25
2018-01-20T22:35:46.548Z,46.63
2018-01-20T22:38:14.450Z,47.95
2018-01-20T22:40:41.997Z,51.00
2018-01-20T22:43:09.905Z,50.58
2018-01-20T22:45:37.470Z,53.10
2018-01-20T22:48:04.980Z,55.65
2018-01-20T22:50:32.506Z,61.72
2018-01-20T22:53:00.399Z,58.97
2018-01-20T22:55:27.885Z,64.25
2018-01-20T22:57:55.412Z,54.88
2018-01-20T23:00:23.406Z,66.45
2018-01-20T23:02:51.308Z,58.28
2018-01-20T23:05:18.849Z,50.00
2018-01-20T23:07:46.758Z,64.95
2018-01-20T23:10:14.249Z,64.25
2018-01-20T23:12:41.760Z,59.72
2018-01-20T23:15:09.242Z,86.72
2018-01-20T23:17:37.157Z,68.95
2018-01-20T23:20:04.656Z,104.43
2018-01-20T23:22:32.165Z,93.75
2018-01-20T23:25:00.067Z,72.45
2018-01-20T23:27:27.552Z,103.45
2018-01-20T23:29:55.043Z,79.05
2018-01-20T23:32:22.533Z,78.22
2018-01-20T23:34:50.032Z,89.93
2018-01-20T23:37:17.907Z,96.22
2018-01-20T23:39:45.803Z,102.47
2018-01-20T23:42:13.297Z,104.93
2018-01-20T23:44:40.799Z,85.03
2018-01-20T23:47:08.289Z,70.18
2018-01-20T23:49:35.788Z,85.75
2018-01-20T23:52:03.280Z,97.95
2018-01-20T23:54:30.775Z,85.10
2018-01-20T23:56:58.269Z,97.45
2018-01-20T23:59:25.785Z,101.43
